createdAt,value
2022-10-19T00:01:03.997Z,101696.88
2022-10-19T00:03:32.338Z,101698.81
2022-10-19T00:06:00.893Z,101714.91
2022-10-19T00:08:28.848Z,101712.22
2022-10-19T00:10:56.736Z,101719.28
2022-10-19T00:13:26.233Z,101726.41
2022-10-19T00:15:54.142Z,101731.75
2022-10-19T00:18:22.123Z,101733.69
2022-10-19T00:20:50.037Z,101747.97
2022-10-19T00:23:17.980Z,101739.94
2022-10-19T00:25:56.178Z,101737.13
2022-10-19T00:28:24.047Z,101745.38
2022-10-19T00:30:53.326Z,101748.81
2022-10-19T00:33:22.591Z,101745.38
2022-10-19T00:35:52.070Z,101717.72
2022-10-19T00:38:21.588Z,101735.63
2022-10-19T00:40:49.833Z,101725.75
2022-10-19T00:43:21.073Z,101754.41
2022-10-19T00:45:49.208Z,101755.34
2022-10-19T00:48:22.325Z,101752.66
2022-10-19T00:50:52.364Z,101763.50
2022-10-19T00:53:20.372Z,101766.28
2022-10-19T00:55:48.532Z,101773.44
2022-10-19T00:58:16.556Z,101763.69
2022-10-19T01:00:44.598Z,101770.88
2022-10-19T01:03:14.414Z,101777.13
2022-10-19T01:05:44.418Z,101766.47
2022-10-19T01:08:13.316Z,101759.00
2022-10-19T01:10:48.227Z,101777.19
2022-10-19T01:13:25.962Z,101783.53
2022-10-19T01:16:02.033Z,101791.59
2022-10-19T01:18:40.789Z,101793.41
2022-10-19T01:21:30.093Z,101788.09
2022-10-19T01:24:34.821Z,101793.47
2022-10-19T01:27:36.399Z,101782.84
2022-10-19T01:30:12.826Z,101789.16
2022-10-19T01:32:53.148Z,101798.84
2022-10-19T01:35:28.584Z,101799.81
2022-10-19T01:38:06.038Z,101768.38
2022-10-19T01:40:43.652Z,101798.06
2022-10-19T01:43:21.449Z,101802.50
2022-10-19T01:45:55.184Z,101811.41
2022-10-19T01:48:27.399Z,101804.44
2022-10-19T01:51:00.956Z,101796.38
2022-10-19T01:53:32.246Z,101811.59
2022-10-19T01:56:03.042Z,101816.09
2022-10-19T01:58:36.632Z,101807.28
2022-10-19T02:03:43.467Z,101815.34
2022-10-19T02:06:12.880Z,101817.03
2022-10-19T02:08:45.838Z,101796.47
2022-10-19T02:11:13.856Z,101819.06
2022-10-19T02:13:43.837Z,101822.50
2022-10-19T02:16:19.021Z,101822.41
2022-10-19T02:18:50.422Z,101818.97
2022-10-19T02:21:19.188Z,101821.75
2022-10-19T02:23:49.294Z,101819.06
2022-10-19T02:26:20.077Z,101831.63
2022-10-19T02:28:48.874Z,101831.63
2022-10-19T02:31:18.444Z,101819.72
2022-10-19T02:33:46.617Z,101838.78
2022-10-19T02:36:14.579Z,101836.13
2022-10-19T02:38:43.137Z,101808.50
2022-10-19T02:41:17.296Z,101834.31
2022-10-19T02:43:50.889Z,101840.53
2022-10-19T02:46:27.272Z,101821.66
2022-10-19T02:48:57.665Z,101843.28
2022-10-19T02:51:30.488Z,101836.97
2022-10-19T02:54:01.217Z,101845.13
2022-10-19T02:56:32.227Z,101823.53
2022-10-19T02:59:00.332Z,101838.03
2022-10-19T03:01:29.602Z,101845.03
2022-10-19T03:03:57.462Z,101848.75
2022-10-19T03:06:25.514Z,101849.72
2022-10-19T03:08:53.406Z,101848.06
2022-10-19T03:11:21.300Z,101848.06
2022-10-19T03:13:49.175Z,101851.63
2022-10-19T03:16:17.236Z,101850.75
2022-10-19T03:18:46.506Z,101857.00
2022-10-19T03:21:15.097Z,101854.50
2022-10-19T03:23:43.093Z,101862.53
2022-10-19T03:26:15.236Z,101867.81
2022-10-19T03:28:43.552Z,101864.34
2022-10-19T03:31:11.483Z,101864.47
2022-10-19T03:33:39.416Z,101870.69
2022-10-19T03:36:33.416Z,101865.41
2022-10-19T03:39:03.480Z,101863.69
2022-10-19T03:41:34.168Z,101865.41
2022-10-19T03:44:02.560Z,101810.44
2022-10-19T03:46:30.976Z,101875.28
2022-10-19T03:48:58.936Z,101870.88
2022-10-19T03:51:28.341Z,101877.00
2022-10-19T03:54:00.472Z,101873.44
2022-10-19T03:56:30.314Z,101872.59
2022-10-19T03:59:00.488Z,101869.31
2022-10-19T04:01:31.149Z,101886.09
2022-10-19T04:04:00.580Z,101884.28
2022-10-19T04:06:30.377Z,101891.38
2022-10-19T04:09:00.456Z,101894.06
2022-10-19T04:11:29.978Z,101889.75
2022-10-19T04:13:59.461Z,101886.09
2022-10-19T04:16:29.995Z,101876.78
2022-10-19T04:18:58.260Z,101888.94
2022-10-19T04:21:28.602Z,101887.06
2022-10-19T04:24:05.314Z,101881.97
2022-10-19T04:26:33.910Z,101894.25
2022-10-19T04:29:02.683Z,101904.00
2022-10-19T04:31:30.805Z,101903.22
2022-10-19T04:33:59.016Z,101892.28
2022-10-19T04:36:27.001Z,101904.16
2022-10-19T04:38:54.898Z,101904.16
2022-10-19T04:41:24.694Z,101912.22
2022-10-19T04:43:57.156Z,101927.47
2022-10-19T04:46:26.259Z,101921.41
2022-10-19T04:48:54.725Z,101927.53
2022-10-19T04:51:23.710Z,101914.69
2022-10-19T04:53:53.360Z,101931.28
2022-10-19T04:56:27.278Z,101937.59
2022-10-19T04:58:57.640Z,101946.50
2022-10-19T05:01:27.723Z,101942.09
2022-10-19T05:06:25.670Z,101947.47
2022-10-19T05:08:54.298Z,101941.22
2022-10-19T05:11:22.513Z,101946.59
2022-10-19T05:13:51.909Z,101944.78
2022-10-19T05:16:22.188Z,101946.59
2022-10-19T05:18:50.909Z,101945.72
2022-10-19T05:21:20.668Z,101942.56
2022-10-19T05:23:52.017Z,101941.41
2022-10-19T05:26:21.516Z,101952.13
2022-10-19T05:28:51.588Z,101953.88
2022-10-19T05:31:21.352Z,101961.91
2022-10-19T05:33:49.234Z,101957.59
2022-10-19T05:36:19.551Z,101962.00
2022-10-19T05:38:49.089Z,101963.72
2022-10-19T05:41:17.964Z,101964.66
2022-10-19T05:43:46.560Z,101941.38
2022-10-19T05:46:18.594Z,101953.94
2022-10-19T05:48:47.418Z,101959.50
2022-10-19T05:51:17.459Z,101962.09
2022-10-19T05:53:45.779Z,101961.41
2022-10-19T05:56:16.301Z,101966.59
2022-10-19T05:58:44.218Z,101973.84
2022-10-19T06:01:12.572Z,101977.47
2022-10-19T06:03:42.027Z,101973.00
2022-10-19T06:06:10.739Z,101974.91
2022-10-19T06:08:39.868Z,101974.91
2022-10-19T06:11:09.259Z,101976.63
2022-10-19T06:13:37.310Z,101983.81
2022-10-19T06:16:06.198Z,101982.94
2022-10-19T06:18:34.499Z,101983.88
2022-10-19T06:21:06.235Z,101977.47
2022-10-19T06:23:35.226Z,101987.44
2022-10-19T06:26:04.643Z,101987.44
2022-10-19T06:28:32.732Z,101993.66
2022-10-19T06:31:01.480Z,101988.38
2022-10-19T06:33:31.485Z,101993.75
2022-10-19T06:36:08.323Z,101995.59
2022-10-19T06:38:36.332Z,101992.38
2022-10-19T06:41:04.636Z,101987.19
2022-10-19T06:43:33.082Z,101995.66
2022-10-19T06:46:04.624Z,101998.44
2022-10-19T06:48:32.627Z,102005.59
2022-10-19T06:51:01.805Z,102012.72
2022-10-19T06:53:34.290Z,102010.19
2022-10-19T06:56:03.667Z,102014.59
2022-10-19T06:58:31.632Z,101992.06
2022-10-19T07:01:00.938Z,102017.19
2022-10-19T07:03:30.276Z,102017.19
2022-10-19T07:05:59.865Z,102024.28
2022-10-19T07:08:29.140Z,102031.28
2022-10-19T07:11:00.378Z,102015.19
2022-10-19T07:13:29.812Z,102038.13
2022-10-19T07:15:58.752Z,102035.44
2022-10-19T07:18:26.820Z,102032.75
2022-10-19T07:20:56.052Z,102036.13
2022-10-19T07:23:24.206Z,102013.53
2022-10-19T07:25:53.553Z,102049.38
2022-10-19T07:28:23.076Z,102054.03
2022-10-19T07:30:51.039Z,102054.63
2022-10-19T07:33:19.002Z,102064.31
2022-10-19T07:35:46.913Z,102060.69
2022-10-19T07:38:14.848Z,102058.88
2022-10-19T07:40:46.391Z,102067.53
2022-10-19T07:43:15.453Z,102064.84
2022-10-19T07:45:44.757Z,102060.25
2022-10-19T07:48:12.668Z,102060.25
2022-10-19T07:50:40.562Z,102062.78
2022-10-19T07:53:08.479Z,102060.09
2022-10-19T07:55:36.362Z,102068.91
2022-10-19T07:58:04.329Z,102067.00
2022-10-19T08:00:32.263Z,102068.72
2022-10-19T08:03:43.248Z,102073.16
2022-10-19T08:05:49.494Z,102070.53
2022-10-19T08:08:17.353Z,102082.03
2022-10-19T08:10:45.339Z,102082.84
2022-10-19T08:13:13.240Z,102081.88
2022-10-19T08:15:41.217Z,102076.34
2022-10-19T08:18:11.468Z,102085.16
2022-10-19T08:20:42.320Z,102088.72
2022-10-19T08:23:10.318Z,102088.81
2022-10-19T08:25:38.297Z,102101.25
2022-10-19T08:28:06.209Z,102095.88
2022-10-19T08:30:36.548Z,102094.84
2022-10-19T08:33:07.398Z,102093.03
2022-10-19T08:35:36.828Z,102092.94
2022-10-19T08:38:04.861Z,102090.34
2022-10-19T08:40:33.176Z,102091.06
2022-10-19T08:43:06.213Z,102092.69
2022-10-19T08:48:23.802Z,102090.66
2022-10-19T08:50:54.410Z,102091.53
2022-10-19T08:53:31.660Z,102096.72
2022-10-19T08:56:15.022Z,102092.25
2022-10-19T08:59:07.558Z,102092.25
2022-10-19T09:01:41.688Z,102098.47
2022-10-19T09:04:18.360Z,102100.97
2022-10-19T09:06:57.132Z,102107.19
2022-10-19T09:09:26.518Z,102108.09
2022-10-19T09:12:06.644Z,102104.38
2022-10-19T09:14:39.845Z,102109.84
2022-10-19T09:17:14.310Z,102104.38
2022-10-19T09:19:42.337Z,102105.41
2022-10-19T09:22:19.549Z,102104.47
2022-10-19T09:24:51.740Z,102102.72
2022-10-19T09:27:23.381Z,102108.09
2022-10-19T09:29:55.446Z,102109.88
2022-10-19T09:32:27.645Z,102107.19
2022-10-19T09:34:58.943Z,102092.50
2022-10-19T09:37:31.426Z,102096.72
2022-10-19T09:39:59.390Z,102102.72
2022-10-19T09:42:30.421Z,102101.81
2022-10-19T09:45:00.200Z,102101.81
2022-10-19T09:47:34.638Z,102099.13
2022-10-19T09:50:16.905Z,102099.13
2022-10-19T09:52:48.167Z,102107.19
2022-10-19T09:55:26.064Z,102103.63
2022-10-19T09:58:02.053Z,102110.78
2022-10-19T10:00:36.915Z,102109.88
2022-10-19T10:03:06.204Z,102109.00
2022-10-19T10:05:36.789Z,102120.59
2022-10-19T10:08:12.845Z,102113.47
2022-10-19T10:10:45.648Z,102122.38
2022-10-19T10:13:18.760Z,102099.00
2022-10-19T10:15:52.124Z,102113.72
2022-10-19T10:18:20.373Z,102115.34
2022-10-19T10:21:00.303Z,102086.44
2022-10-19T10:23:34.094Z,102104.63
2022-10-19T10:26:02.230Z,102100.97
2022-10-19T10:28:31.377Z,102099.25
2022-10-19T10:31:05.605Z,102095.59
2022-10-19T10:36:27.036Z,102092.25
2022-10-19T10:41:40.657Z,102100.19
2022-10-19T10:44:17.440Z,102102.09
2022-10-19T10:46:53.620Z,102102.88
2022-10-19T10:49:25.669Z,102103.84
2022-10-19T10:51:56.984Z,102104.63
2022-10-19T10:54:30.424Z,102104.63
2022-10-19T10:57:13.025Z,102108.16
2022-10-19T10:59:48.945Z,102098.81
2022-10-19T11:02:41.845Z,102106.28
2022-10-19T11:05:15.857Z,102109.84
2022-10-19T11:07:46.709Z,102113.28
2022-10-19T11:10:26.653Z,102108.69
2022-10-19T11:13:02.812Z,102114.06
2022-10-19T11:15:37.054Z,102111.31
2022-10-19T11:18:16.750Z,102117.34
2022-10-19T11:20:53.823Z,102105.84
2022-10-19T11:23:36.406Z,102115.53
2022-10-19T11:26:19.770Z,102112.94
2022-10-19T11:29:04.586Z,102120.63
2022-10-19T11:31:45.940Z,102106.13
2022-10-19T11:34:33.687Z,102122.97
2022-10-19T11:37:13.602Z,102125.63
2022-10-19T11:39:55.038Z,102128.31
2022-10-19T11:42:37.315Z,102124.69
2022-10-19T11:45:17.132Z,102115.25
2022-10-19T11:47:59.805Z,102117.69
2022-10-19T11:50:37.122Z,102083.88
2022-10-19T11:53:13.397Z,102123.66
2022-10-19T11:55:48.060Z,102125.28
2022-10-19T11:58:34.865Z,102112.63
2022-10-19T12:01:14.033Z,102112.53
2022-10-19T12:04:16.529Z,102116.00
2022-10-19T12:06:52.123Z,102116.84
2022-10-19T12:09:31.194Z,102113.97
2022-10-19T12:12:17.977Z,102119.34
2022-10-19T12:14:51.933Z,102116.66
2022-10-19T12:17:25.433Z,102116.66
2022-10-19T12:19:57.439Z,102113.03
2022-10-19T12:22:29.405Z,102107.66
2022-10-19T12:25:01.779Z,102109.31
2022-10-19T12:27:34.342Z,102111.13
2022-10-19T12:30:08.065Z,102104.97
2022-10-19T12:32:45.357Z,102110.19
2022-10-19T12:35:33.396Z,102105.63
2022-10-19T12:38:08.688Z,102103.81
2022-10-19T12:40:41.636Z,102111.81
2022-10-19T12:43:16.658Z,102066.75
2022-10-19T12:45:53.103Z,102100.09
2022-10-19T12:48:24.525Z,102101.91
2022-10-19T12:51:01.741Z,102107.09
2022-10-19T12:53:32.041Z,102097.34
2022-10-19T12:56:02.539Z,102094.53
2022-10-19T12:58:37.268Z,102093.50
2022-10-19T13:01:08.764Z,102093.50
2022-10-19T13:03:40.523Z,102091.78
2022-10-19T13:06:13.590Z,102091.56
2022-10-19T13:08:46.057Z,102093.41
2022-10-19T13:11:15.678Z,102089.00
2022-10-19T13:13:59.021Z,102092.44
2022-10-19T13:16:56.625Z,102096.88
2022-10-19T13:19:26.437Z,102075.03
2022-10-19T13:22:03.773Z,102087.06
2022-10-19T13:24:37.924Z,102095.88
2022-10-19T13:27:29.202Z,102090.63
2022-10-19T13:29:57.437Z,102086.19
2022-10-19T13:32:39.709Z,102092.38
2022-10-19T13:35:32.286Z,102091.38
2022-10-19T13:38:28.089Z,102093.13
2022-10-19T13:41:06.535Z,102090.44
2022-10-19T13:43:38.354Z,102084.19
2022-10-19T13:46:11.638Z,102089.47
2022-10-19T13:49:05.335Z,102084.97
2022-10-19T13:51:44.288Z,102093.03
2022-10-19T13:54:40.132Z,102098.31
2022-10-19T13:57:19.768Z,102094.66
2022-10-19T14:00:11.630Z,102087.66
2022-10-19T14:03:11.858Z,102090.25
2022-10-19T14:06:03.807Z,102087.56
2022-10-19T14:08:49.470Z,102083.16
2022-10-19T14:11:20.709Z,102055.41
2022-10-19T14:14:13.328Z,102084.97
2022-10-19T14:16:49.420Z,102078.06
2022-10-19T14:19:27.007Z,102080.63
2022-10-19T14:21:59.805Z,102093.13
2022-10-19T14:24:35.008Z,102072.88
2022-10-19T14:27:04.865Z,102089.69
2022-10-19T14:29:36.980Z,102072.75
2022-10-19T14:32:05.459Z,102078.06
2022-10-19T14:34:33.341Z,102075.28
2022-10-19T14:37:01.308Z,102075.19
2022-10-19T14:39:33.844Z,102073.34
2022-10-19T14:42:05.902Z,102071.53
2022-10-19T14:44:41.109Z,102072.41
2022-10-19T14:47:22.116Z,102068.09
2022-10-19T14:49:51.235Z,102059.16
2022-10-19T14:55:11.470Z,102059.16
2022-10-19T14:57:43.890Z,102059.16
2022-10-19T15:00:19.035Z,102056.47
2022-10-19T15:02:53.049Z,102060.97
2022-10-19T15:05:23.982Z,102054.94
2022-10-19T15:07:52.481Z,102060.13
2022-10-19T15:10:25.206Z,102064.72
2022-10-19T15:13:02.351Z,102066.75
2022-10-19T15:15:33.374Z,102075.66
2022-10-19T15:18:06.358Z,102062.00
2022-10-19T15:20:44.191Z,102076.69
2022-10-19T15:23:35.368Z,102079.59
2022-10-19T15:26:17.304Z,102076.09
2022-10-19T15:28:46.655Z,102082.44
2022-10-19T15:31:18.139Z,102080.63
2022-10-19T15:33:49.852Z,102078.91
2022-10-19T15:36:19.668Z,102073.69
2022-10-19T15:38:49.945Z,102065.00
2022-10-19T15:41:28.287Z,102077.38
2022-10-19T15:43:59.226Z,102081.00
2022-10-19T15:46:31.620Z,102082.81
2022-10-19T15:49:02.245Z,102082.03
2022-10-19T15:51:47.652Z,102081.16
2022-10-19T15:54:17.541Z,102083.97
2022-10-19T15:56:48.479Z,102078.66
2022-10-19T15:59:19.259Z,102077.78
2022-10-19T16:01:52.579Z,102064.34
2022-10-19T16:04:21.646Z,102064.06
2022-10-19T16:06:49.565Z,102080.59
2022-10-19T16:09:20.427Z,102080.59
2022-10-19T16:11:56.278Z,102018.16
2022-10-19T16:14:24.374Z,102078.06
2022-10-19T16:16:52.261Z,102084.31
2022-10-19T16:19:20.259Z,102085.25
2022-10-19T16:21:50.393Z,102084.50
2022-10-19T16:24:18.626Z,102082.78
2022-10-19T16:26:46.532Z,102093.59
2022-10-19T16:29:15.829Z,102088.41
2022-10-19T16:31:43.701Z,102082.25
2022-10-19T16:34:11.713Z,102075.25
2022-10-19T16:36:39.629Z,102074.50
2022-10-19T16:39:07.613Z,102073.81
2022-10-19T16:41:35.735Z,102073.91
2022-10-19T16:44:03.729Z,102073.97
2022-10-19T16:46:33.191Z,102079.44
2022-10-19T16:49:01.061Z,102074.31
2022-10-19T16:51:36.036Z,102074.13
2022-10-19T16:54:05.203Z,102078.06
2022-10-19T16:56:34.143Z,102076.22
2022-10-19T16:59:04.687Z,102061.88
2022-10-19T17:01:35.790Z,102078.22
2022-10-19T17:04:03.840Z,102080.97
2022-10-19T17:06:31.902Z,102078.50
2022-10-19T17:11:49.026Z,102081.44
2022-10-19T17:14:16.945Z,102079.72
2022-10-19T17:16:46.432Z,102081.53
2022-10-19T17:19:14.514Z,102078.06
2022-10-19T17:21:42.662Z,102082.63
2022-10-19T17:24:18.679Z,102077.28
2022-10-19T17:26:50.126Z,102075.75
2022-10-19T17:29:18.342Z,102083.78
2022-10-19T17:31:47.985Z,102060.44
2022-10-19T17:34:16.497Z,102077.06
2022-10-19T17:36:45.978Z,102084.91
2022-10-19T17:39:17.703Z,102076.09
2022-10-19T17:41:46.528Z,102082.59
2022-10-19T17:44:14.596Z,102086.03
2022-10-19T17:46:42.802Z,102082.66
2022-10-19T17:49:12.584Z,102090.63
2022-10-19T17:51:41.040Z,102096.94
2022-10-19T17:54:12.115Z,102094.34
2022-10-19T17:56:40.960Z,102091.75
2022-10-19T17:59:09.247Z,102094.53
2022-10-19T18:01:38.340Z,102099.88
2022-10-19T18:04:06.678Z,102081.38
2022-10-19T18:06:37.616Z,102088.28
2022-10-19T18:09:08.747Z,102083.97
2022-10-19T18:11:38.872Z,102085.78
2022-10-19T18:14:09.077Z,102086.75
2022-10-19T18:16:39.285Z,102079.66
2022-10-19T18:19:08.279Z,102070.66
2022-10-19T18:21:41.238Z,102085.94
2022-10-19T18:24:15.282Z,102089.66
2022-10-19T18:26:44.235Z,102087.97
2022-10-19T18:29:17.618Z,102093.31
2022-10-19T18:31:49.162Z,102097.03
2022-10-19T18:34:17.742Z,102091.75
2022-10-19T18:36:48.478Z,102088.13
2022-10-19T18:39:19.564Z,102088.22
2022-10-19T18:41:53.356Z,102090.19
2022-10-19T18:44:26.311Z,102086.66
2022-10-19T18:46:56.196Z,102081.63
2022-10-19T18:49:25.612Z,102078.69
2022-10-19T18:51:58.930Z,102080.56
2022-10-19T18:54:28.148Z,102071.75
2022-10-19T18:56:56.879Z,102078.00
2022-10-19T19:02:02.321Z,102078.00
2022-10-19T19:04:32.264Z,102078.25
2022-10-19T19:07:03.499Z,102083.34
2022-10-19T19:09:32.233Z,102081.72
2022-10-19T19:12:01.394Z,102077.22
2022-10-19T19:14:31.553Z,102080.84
2022-10-19T19:16:59.677Z,102078.25
2022-10-19T19:19:29.981Z,102071.16
2022-10-19T19:22:07.820Z,102074.72
2022-10-19T19:24:38.453Z,102068.56
2022-10-19T19:27:07.337Z,102074.88
2022-10-19T19:29:36.412Z,102080.22
2022-10-19T19:32:05.287Z,102067.78
2022-10-19T19:34:34.124Z,102086.53
2022-10-19T19:37:04.060Z,102074.09
2022-10-19T19:39:33.914Z,102085.75
2022-10-19T19:42:03.329Z,102080.41
2022-10-19T19:44:31.736Z,102079.53
2022-10-19T19:47:00.887Z,102070.66
2022-10-19T19:49:28.878Z,102064.44
2022-10-19T19:51:56.821Z,102068.97
2022-10-19T19:54:24.986Z,102076.13
2022-10-19T19:56:53.410Z,102073.47
2022-10-19T19:59:22.764Z,102069.81
2022-10-19T20:01:50.802Z,102072.59
2022-10-19T20:04:19.942Z,102063.84
2022-10-19T20:06:47.862Z,102077.06
2022-10-19T20:09:15.915Z,102079.84
2022-10-19T20:11:45.217Z,102082.53
2022-10-19T20:14:13.740Z,102079.91
2022-10-19T20:16:43.073Z,102080.78
2022-10-19T20:19:13.033Z,102082.59
2022-10-19T20:21:41.810Z,102087.19
2022-10-19T20:24:10.512Z,102082.78
2022-10-19T20:26:38.626Z,102094.34
2022-10-19T20:29:06.872Z,102073.19
2022-10-19T20:31:39.476Z,102090.03
2022-10-19T20:34:13.983Z,102086.31
2022-10-19T20:36:42.815Z,102089.25
2022-10-19T20:39:11.194Z,102069.88
2022-10-19T20:41:39.111Z,102077.59
2022-10-19T20:44:06.990Z,102070.50
2022-10-19T20:46:36.945Z,102057.63
2022-10-19T20:49:05.294Z,102068.84
2022-10-19T20:51:36.782Z,102063.50
2022-10-19T20:54:07.117Z,102064.38
2022-10-19T20:56:36.757Z,102068.84
2022-10-19T20:59:06.627Z,102066.06
2022-10-19T21:01:36.120Z,102076.72
2022-10-19T21:04:06.136Z,102066.88
2022-10-19T21:06:39.317Z,102064.09
2022-10-19T21:09:08.269Z,102066.88
2022-10-19T21:11:38.432Z,102063.06
2022-10-19T21:14:08.604Z,102060.31
2022-10-19T21:16:37.763Z,102060.31
2022-10-19T21:19:07.055Z,102052.28
2022-10-19T21:21:37.653Z,102066.44
2022-10-19T21:24:08.701Z,102044.84
2022-10-19T21:26:38.023Z,102060.22
2022-10-19T21:29:09.451Z,102062.81
2022-10-19T21:31:38.850Z,102054.75
2022-10-19T21:34:07.141Z,102058.31
2022-10-19T21:36:36.480Z,102054.59
2022-10-19T21:39:05.136Z,102039.91
2022-10-19T21:41:33.205Z,102053.72
2022-10-19T21:44:01.161Z,102050.22
2022-10-19T21:46:29.652Z,102032.72
2022-10-19T21:48:57.783Z,102047.44
2022-10-19T21:51:33.264Z,102040.19
2022-10-19T21:54:02.935Z,102042.00
2022-10-19T21:56:31.140Z,102025.22
2022-10-19T21:58:59.032Z,102035.69
2022-10-19T22:01:29.482Z,102030.34
2022-10-19T22:03:58.556Z,102025.97
2022-10-19T22:06:28.108Z,102028.66
2022-10-19T22:08:56.623Z,102025.09
2022-10-19T22:11:26.688Z,102031.34
2022-10-19T22:13:56.322Z,102025.09
2022-10-19T22:16:25.872Z,102030.47
2022-10-19T22:18:54.605Z,102030.56
2022-10-19T22:21:24.669Z,102015.78
2022-10-19T22:23:53.701Z,102023.47
2022-10-19T22:26:24.402Z,102023.63
2022-10-19T22:28:54.123Z,102029.69
2022-10-19T22:31:22.038Z,102028.06
2022-10-19T22:33:50.181Z,102028.06
2022-10-19T22:36:18.418Z,102026.31
2022-10-19T22:38:47.106Z,102006.34
2022-10-19T22:41:15.019Z,102024.59
2022-10-19T22:43:42.978Z,102022.88
2022-10-19T22:46:12.281Z,101975.47
2022-10-19T22:48:40.173Z,102024.66
2022-10-19T22:51:08.368Z,102024.78
2022-10-19T22:53:36.378Z,102018.81
2022-10-19T22:56:05.002Z,102017.59
2022-10-19T22:58:33.012Z,102013.19
2022-10-19T23:01:06.470Z,102019.41
2022-10-19T23:03:36.051Z,102017.66
2022-10-19T23:06:04.261Z,102020.34
2022-10-19T23:08:32.240Z,102029.34
2022-10-19T23:11:00.124Z,102001.56
2022-10-19T23:13:28.017Z,102031.16
2022-10-19T23:15:55.917Z,102023.13
2022-10-19T23:18:24.040Z,102023.13
2022-10-19T23:20:57.291Z,102020.44
2022-10-19T23:23:25.593Z,102025.03
2022-10-19T23:26:01.565Z,102025.88
2022-10-19T23:28:30.348Z,101983.41
2022-10-19T23:30:58.905Z,102029.53
2022-10-19T23:33:27.268Z,102023.19
2022-10-19T23:36:02.146Z,102020.50
2022-10-19T23:38:30.163Z,102018.81
2022-10-19T23:40:58.088Z,102019.69
2022-10-19T23:43:26.072Z,102020.63
2022-10-19T23:45:54.048Z,102019.84
2022-10-19T23:48:22.041Z,102018.97
2022-10-19T23:50:59.762Z,102011.81
2022-10-19T23:53:28.590Z,102010.22
2022-10-19T23:56:00.380Z,102004.69
2022-10-19T23:58:28.528Z,102010.16
